Архив погоды в Кашире

Метеограмма Кашира
Воскресенье, 31 Мая
Время местн. Темп Ветер Видим Явления Облачность нижн/средн/верх Атм. давл. Влжн Точка росы ВНГО R Сост. почвы Tg s
Напр Скр Прв ур.ст ур.м изм
09:00 +13.2° С,С-В 4 - 10 км - облачно 736 756 -0.1 88% +11.2° 600 м 2 Влажная (без луж) - -
06:00 +14.5° Ю-З 1 - 10 км - переменная облачность 737 756 -0.6 90% +12.9° 600 м - - - -
03:00 +14.7° Ю,Ю-З 1 - 10 км небо без изменений {ливневые осадки} преимущественно облачно 737 756 -0.4 93% +13.5° 600 м - - - -
00:00 +15.4° Ю,Ю-В 1 - 10 км слабый ливневый дождь облачно 738 757 +1.1 90% +13.7° 600 м - - - -
Суббота, 30 Мая
Время местн. Темп Ветер Видим Явления Облачность нижн/средн/верх Атм. давл. Влжн Точка росы ВНГО R Сост. почвы Tg s
Напр Скр Прв ур.ст ур.м изм
21:00 +17.2° Ю 2 - 10 км - облачно 737 756 -0.2 77% +13.2° 600 м 0 - - -
18:00 +24.2° В,Ю-В 3 - 10 км - преимущественно облачно 737 755 -0.2 35% +7.7° 1 км - - - -
15:00 +25.9° В 6 10 20 км - переменная облачность 737 755 -1.4 30% +7° 1 км - - - -
12:00 +23.3° С-В 4 - 20 км - переменная облачность 738 757 -0.8 52% +13° - - - - -
09:00 +19.1° С-В 3 - 20 км - незначительная облачность 739 758 -1.1 68% +13.1° более 2.5 км 0 Влажная (без луж) - -
06:00 +13.5° С-В 5 - 10 км - преимущественно облачно 740 759 -0.8 90% +11.9° 600 м - - - -
03:00 +13.9° С,С-В 4 - 10 км - преимущественно облачно 741 760 -0.2 89% +12.2° 1 км - - - -
00:00 +15.6° С 2 - 10 км - облачно 741 760 -0.3 83% +12.8° 600 м - - - -
Пятница, 29 Мая
Время местн. Темп Ветер Видим Явления Облачность нижн/средн/верх Атм. давл. Влжн Точка росы ВНГО R Сост. почвы Tg s
Напр Скр Прв ур.ст ур.м изм
21:00 +16.7° С-В 4 - 10 км - облачно 741 761 -0.5 83% +13.8° 1 км 0.8 - - -
18:00 +18.3° С-В 3 - 10 км - преимущественно облачно 742 761 -1.1 76% +14° 1 км - - - -
15:00 +18.1° С-В 2 - 10 км небо без изменений {ливневые осадки} облачно 743 762 -0.2 81% +14.8° 600 м - - - -
12:00 +15.4° В,С-В 1 - 10 км слабый ливневый дождь облачно 743 763 +0.2 88% +13.4° 600 м - - - -
09:00 +13.2° В,Ю-В 2 - 2 км умеренный или сильный ливневый дождь облачно 743 763 -0.2 89% +11.4° 600 м 2 Влажная (без луж) - -
06:00 +13.2° В,Ю-В 4 - 10 км слабый ливневый дождь облачно 743 763 -1.8 79% +9.6° 600 м - - - -
03:00 +13.3° В,С-В 3 - 10 км небо без изменений {ливневые осадки} преимущественно облачно 745 765 -1.6 73% +8.6° 1 км - - - -
00:00 +13.4° штиль 0 - 10 км слабый ливневый дождь облачно 747 766 -0.6 74% +8.8° 600 м - - - -
Четверг, 28 Мая
Время местн. Темп Ветер Видим Явления Облачность нижн/средн/верх Атм. давл. Влжн Точка росы ВНГО R Сост. почвы Tg s
Напр Скр Прв ур.ст ур.м изм
21:00 +15.5° Ю,Ю-В 2 - 10 км - преимущественно облачно 747 766 -0.6 64% +8.8° 1 км 0 - - -
18:00 +17.9° Ю,Ю-В 2 - 10 км - преимущественно облачно 748 767 -0.6 51% +7.6° 1 км - - - -
15:00 +18.1° Ю,Ю-В 2 - 20 км - облачно 748 768 -0.4 45% +6.1° 1 км - - - -
12:00 +18.1° Ю,Ю-В 2 - 20 км - облачно с прояснениями 749 768 -0.6 45% +6.1° 600 м - - - -
09:00 +16.5° З,С-З 2 - 20 км - переменная облачность 749 769 +0.3 57% +8° 1 км 0 Влажная (без луж) - -
06:00 +10.4° Ю-З 1 - 10 км - ясно 749 769 0 80% +7.1° более 2.5 км - - - -